sensor_id;sensor_type;location;lat;lon;timestamp;pressure;altitude;pressure_sealevel;temperature;humidity
15817;BME280;8009;50.070;8.232;2022-11-25T00:01:06;99890.16;;;7.64;76.52
15817;BME280;8009;50.070;8.232;2022-11-25T00:03:36;99880.47;;;7.62;76.22
15817;BME280;8009;50.070;8.232;2022-11-25T00:06:10;99886.28;;;7.41;77.61
15817;BME280;8009;50.070;8.232;2022-11-25T00:08:47;99879.22;;;7.12;78.64
15817;BME280;8009;50.070;8.232;2022-11-25T00:11:17;99883.50;;;7.28;78.30
15817;BME280;8009;50.070;8.232;2022-11-25T00:13:47;99877.72;;;7.49;77.69
15817;BME280;8009;50.070;8.232;2022-11-25T00:16:17;99879.44;;;7.50;77.85
15817;BME280;8009;50.070;8.232;2022-11-25T00:18:50;99871.69;;;7.45;77.99
15817;BME280;8009;50.070;8.232;2022-11-25T00:21:21;99874.13;;;7.07;80.24
15817;BME280;8009;50.070;8.232;2022-11-25T00:23:54;99880.63;;;7.31;78.90
15817;BME280;8009;50.070;8.232;2022-11-25T00:26:25;99883.34;;;7.58;78.17
15817;BME280;8009;50.070;8.232;2022-11-25T00:28:57;99885.50;;;7.25;79.77
15817;BME280;8009;50.070;8.232;2022-11-25T00:31:27;99874.13;;;7.21;80.20
15817;BME280;8009;50.070;8.232;2022-11-25T00:33:56;99878.34;;;7.11;80.08
15817;BME280;8009;50.070;8.232;2022-11-25T00:36:26;99870.66;;;7.33;78.94
15817;BME280;8009;50.070;8.232;2022-11-25T00:38:59;99865.84;;;7.39;78.56
15817;BME280;8009;50.070;8.232;2022-11-25T00:41:28;99862.84;;;7.43;78.64
15817;BME280;8009;50.070;8.232;2022-11-25T00:44:10;99868.63;;;7.78;78.04
15817;BME280;8009;50.070;8.232;2022-11-25T00:46:51;99866.53;;;7.69;77.92
15817;BME280;8009;50.070;8.232;2022-11-25T00:49:20;99855.47;;;7.74;77.12
15817;BME280;8009;50.070;8.232;2022-11-25T00:51:48;99850.50;;;7.68;77.33
15817;BME280;8009;50.070;8.232;2022-11-25T00:54:27;99855.56;;;7.72;76.99
15817;BME280;8009;50.070;8.232;2022-11-25T00:56:56;99866.38;;;7.58;78.05
15817;BME280;8009;50.070;8.232;2022-11-25T00:59:24;99854.66;;;7.86;76.66
15817;BME280;8009;50.070;8.232;2022-11-25T01:01:53;99858.41;;;7.56;78.97
15817;BME280;8009;50.070;8.232;2022-11-25T01:04:22;99857.41;;;7.72;77.87
15817;BME280;8009;50.070;8.232;2022-11-25T01:06:50;99859.72;;;7.91;77.50
15817;BME280;8009;50.070;8.232;2022-11-25T01:09:27;99856.31;;;8.01;77.46
15817;BME280;8009;50.070;8.232;2022-11-25T01:11:56;99852.75;;;8.01;77.41
15817;BME280;8009;50.070;8.232;2022-11-25T01:14:25;99857.06;;;8.03;77.26
15817;BME280;8009;50.070;8.232;2022-11-25T01:16:54;99857.47;;;7.70;77.91
15817;BME280;8009;50.070;8.232;2022-11-25T01:19:23;99861.72;;;8.01;77.10
15817;BME280;8009;50.070;8.232;2022-11-25T01:21:51;99867.34;;;7.43;79.31
15817;BME280;8009;50.070;8.232;2022-11-25T01:24:20;99873.94;;;7.51;79.52
15817;BME280;8009;50.070;8.232;2022-11-25T01:26:53;99866.56;;;7.82;78.34
15817;BME280;8009;50.070;8.232;2022-11-25T01:29:22;99861.28;;;8.07;76.83
15817;BME280;8009;50.070;8.232;2022-11-25T01:31:53;99869.19;;;7.96;77.62
15817;BME280;8009;50.070;8.232;2022-11-25T01:34:24;99864.59;;;8.38;76.42
15817;BME280;8009;50.070;8.232;2022-11-25T01:36:52;99870.00;;;8.24;76.55
15817;BME280;8009;50.070;8.232;2022-11-25T01:39:25;99866.44;;;7.98;77.35
15817;BME280;8009;50.070;8.232;2022-11-25T01:41:56;99865.09;;;8.30;76.66
15817;BME280;8009;50.070;8.232;2022-11-25T01:44:28;99864.50;;;8.40;75.86
15817;BME280;8009;50.070;8.232;2022-11-25T01:47:02;99861.41;;;8.19;77.13
15817;BME280;8009;50.070;8.232;2022-11-25T01:49:35;99859.69;;;8.18;76.64
15817;BME280;8009;50.070;8.232;2022-11-25T01:52:09;99856.03;;;8.31;76.66
15817;BME280;8009;50.070;8.232;2022-11-25T01:54:43;99865.41;;;8.26;75.99
15817;BME280;8009;50.070;8.232;2022-11-25T01:57:20;99862.31;;;8.32;76.33
15817;BME280;8009;50.070;8.232;2022-11-25T01:59:51;99856.03;;;8.31;76.08
15817;BME280;8009;50.070;8.232;2022-11-25T02:02:22;99848.38;;;8.52;75.26
15817;BME280;8009;50.070;8.232;2022-11-25T02:04:51;99852.13;;;8.50;75.55
15817;BME280;8009;50.070;8.232;2022-11-25T02:07:25;99850.63;;;8.59;74.53
15817;BME280;8009;50.070;8.232;2022-11-25T02:09:55;99846.84;;;8.48;75.03
15817;BME280;8009;50.070;8.232;2022-11-25T02:12:27;99849.72;;;8.33;75.45
15817;BME280;8009;50.070;8.232;2022-11-25T02:14:58;99839.75;;;7.95;76.23
15817;BME280;8009;50.070;8.232;2022-11-25T02:17:26;99836.88;;;8.11;75.75
15817;BME280;8009;50.070;8.232;2022-11-25T02:19:59;99838.13;;;8.05;75.94
15817;BME280;8009;50.070;8.232;2022-11-25T02:22:37;99840.72;;;8.06;75.87
15817;BME280;8009;50.070;8.232;2022-11-25T02:25:15;99846.88;;;7.81;76.87
15817;BME280;8009;50.070;8.232;2022-11-25T02:27:46;99841.59;;;8.20;76.07
15817;BME280;8009;50.070;8.232;2022-11-25T02:30:16;99844.00;;;8.24;75.54
15817;BME280;8009;50.070;8.232;2022-11-25T02:32:45;99848.63;;;8.22;75.23
15817;BME280;8009;50.070;8.232;2022-11-25T02:35:26;99841.34;;;8.37;75.14
15817;BME280;8009;50.070;8.232;2022-11-25T02:37:59;99841.06;;;8.27;75.11
15817;BME280;8009;50.070;8.232;2022-11-25T02:40:33;99852.03;;;8.12;75.75
15817;BME280;8009;50.070;8.232;2022-11-25T02:43:03;99848.66;;;7.95;75.82
15817;BME280;8009;50.070;8.232;2022-11-25T02:45:47;99849.03;;;7.76;76.51
15817;BME280;8009;50.070;8.232;2022-11-25T02:48:17;99844.03;;;7.97;76.28
15817;BME280;8009;50.070;8.232;2022-11-25T02:50:45;99845.66;;;8.00;75.75
15817;BME280;8009;50.070;8.232;2022-11-25T02:53:14;99841.06;;;8.02;75.38
15817;BME280;8009;50.070;8.232;2022-11-25T02:55:45;99846.50;;;8.00;75.76
15817;BME280;8009;50.070;8.232;2022-11-25T02:58:14;99848.16;;;8.03;74.98
15817;BME280;8009;50.070;8.232;2022-11-25T03:00:42;99848.16;;;8.16;74.25
15817;BME280;8009;50.070;8.232;2022-11-25T03:03:12;99844.16;;;7.96;75.48
15817;BME280;8009;50.070;8.232;2022-11-25T03:05:41;99846.19;;;8.05;74.35
15817;BME280;8009;50.070;8.232;2022-11-25T03:08:10;99849.13;;;8.15;74.08
15817;BME280;8009;50.070;8.232;2022-11-25T03:10:39;99855.34;;;8.02;74.80
15817;BME280;8009;50.070;8.232;2022-11-25T03:13:12;99861.16;;;7.69;75.32
15817;BME280;8009;50.070;8.232;2022-11-25T03:15:41;99855.88;;;7.68;75.79
15817;BME280;8009;50.070;8.232;2022-11-25T03:18:09;99859.38;;;7.55;75.90
15817;BME280;8009;50.070;8.232;2022-11-25T03:20:39;99854.22;;;7.52;76.70
15817;BME280;8009;50.070;8.232;2022-11-25T03:23:07;99856.09;;;7.65;76.01
15817;BME280;8009;50.070;8.232;2022-11-25T03:25:35;99845.56;;;7.74;76.09
15817;BME280;8009;50.070;8.232;2022-11-25T03:28:04;99854.13;;;7.40;77.62
15817;BME280;8009;50.070;8.232;2022-11-25T03:30:35;99853.22;;;7.53;76.63
15817;BME280;8009;50.070;8.232;2022-11-25T03:33:03;99838.94;;;7.80;75.92
15817;BME280;8009;50.070;8.232;2022-11-25T03:35:32;99838.91;;;8.07;74.84
15817;BME280;8009;50.070;8.232;2022-11-25T03:38:00;99846.78;;;8.10;74.81
15817;BME280;8009;50.070;8.232;2022-11-25T03:40:28;99853.63;;;8.01;74.55
15817;BME280;8009;50.070;8.232;2022-11-25T03:42:57;99870.56;;;7.62;76.52
15817;BME280;8009;50.070;8.232;2022-11-25T03:45:25;99855.13;;;7.51;77.43
15817;BME280;8009;50.070;8.232;2022-11-25T03:47:56;99855.88;;;7.68;75.88
15817;BME280;8009;50.070;8.232;2022-11-25T03:50:26;99840.97;;;7.76;76.69
15817;BME280;8009;50.070;8.232;2022-11-25T03:52:55;99849.41;;;7.70;76.73
15817;BME280;8009;50.070;8.232;2022-11-25T03:55:23;99851.69;;;7.64;76.76
15817;BME280;8009;50.070;8.232;2022-11-25T03:57:54;99854.25;;;7.65;76.54
15817;BME280;8009;50.070;8.232;2022-11-25T04:00:22;99856.13;;;7.50;77.00
15817;BME280;8009;50.070;8.232;2022-11-25T04:02:51;99853.03;;;7.56;76.28
15817;BME280;8009;50.070;8.232;2022-11-25T04:05:23;99857.44;;;7.57;76.62
15817;BME280;8009;50.070;8.232;2022-11-25T04:07:52;99860.09;;;7.72;76.19
15817;BME280;8009;50.070;8.232;2022-11-25T04:10:20;99872.66;;;7.30;79.18
15817;BME280;8009;50.070;8.232;2022-11-25T04:12:49;99872.72;;;7.43;78.92
15817;BME280;8009;50.070;8.232;2022-11-25T04:15:17;99875.53;;;7.27;79.20
15817;BME280;8009;50.070;8.232;2022-11-25T04:17:45;99872.16;;;7.52;77.70
15817;BME280;8009;50.070;8.232;2022-11-25T04:20:14;99870.19;;;7.68;77.29
15817;BME280;8009;50.070;8.232;2022-11-25T04:22:45;99863.63;;;7.72;77.57
15817;BME280;8009;50.070;8.232;2022-11-25T04:25:14;99860.63;;;7.77;76.84
15817;BME280;8009;50.070;8.232;2022-11-25T04:27:43;99867.06;;;7.74;76.41
15817;BME280;8009;50.070;8.232;2022-11-25T04:30:12;99856.81;;;7.67;76.53
15817;BME280;8009;50.070;8.232;2022-11-25T04:32:40;99854.59;;;7.73;76.88
15817;BME280;8009;50.070;8.232;2022-11-25T04:35:09;99852.38;;;7.80;76.74
15817;BME280;8009;50.070;8.232;2022-11-25T04:37:38;99851.72;;;7.76;76.69
15817;BME280;8009;50.070;8.232;2022-11-25T04:40:10;99855.09;;;7.66;76.27
15817;BME280;8009;50.070;8.232;2022-11-25T04:42:39;99843.13;;;7.84;75.90
15817;BME280;8009;50.070;8.232;2022-11-25T04:45:09;99843.09;;;7.71;76.33
15817;BME280;8009;50.070;8.232;2022-11-25T04:47:40;99839.34;;;7.74;76.35
15817;BME280;8009;50.070;8.232;2022-11-25T04:50:12;99843.78;;;7.75;76.50
15817;BME280;8009;50.070;8.232;2022-11-25T04:52:42;99838.81;;;7.81;75.82
15817;BME280;8009;50.070;8.232;2022-11-25T04:55:13;99847.47;;;7.87;75.89
15817;BME280;8009;50.070;8.232;2022-11-25T04:57:42;99849.38;;;7.85;76.28
15817;BME280;8009;50.070;8.232;2022-11-25T05:00:11;99851.06;;;7.73;76.19
15817;BME280;8009;50.070;8.232;2022-11-25T05:02:37;99839.44;;;7.72;76.42
15817;BME280;8009;50.070;8.232;2022-11-25T05:05:06;99839.63;;;7.42;77.57
15817;BME280;8009;50.070;8.232;2022-11-25T05:07:37;99839.41;;;7.60;76.88
15817;BME280;8009;50.070;8.232;2022-11-25T05:10:07;99844.28;;;7.67;76.40
15817;BME280;8009;50.070;8.232;2022-11-25T05:12:40;99840.78;;;7.79;76.13
15817;BME280;8009;50.070;8.232;2022-11-25T05:15:09;99834.22;;;7.84;75.66
15817;BME280;8009;50.070;8.232;2022-11-25T05:17:38;99838.41;;;7.88;75.74
15817;BME280;8009;50.070;8.232;2022-11-25T05:20:09;99843.53;;;7.78;76.41
15817;BME280;8009;50.070;8.232;2022-11-25T05:22:37;99838.75;;;7.83;76.13
15817;BME280;8009;50.070;8.232;2022-11-25T05:25:06;99840.47;;;7.97;75.14
15817;BME280;8009;50.070;8.232;2022-11-25T05:27:35;99842.59;;;7.79;75.83
15817;BME280;8009;50.070;8.232;2022-11-25T05:30:07;99840.50;;;7.70;76.32
15817;BME280;8009;50.070;8.232;2022-11-25T05:32:36;99838.75;;;7.83;75.39
15817;BME280;8009;50.070;8.232;2022-11-25T05:35:05;99846.34;;;7.76;75.95
15817;BME280;8009;50.070;8.232;2022-11-25T05:37:34;99847.19;;;7.77;76.00
15817;BME280;8009;50.070;8.232;2022-11-25T05:40:02;99850.22;;;7.85;75.58
15817;BME280;8009;50.070;8.232;2022-11-25T05:42:31;99851.00;;;7.87;75.86
15817;BME280;8009;50.070;8.232;2022-11-25T05:44:59;99860.09;;;7.72;76.27
15817;BME280;8009;50.070;8.232;2022-11-25T05:47:30;99862.66;;;7.73;76.40
15817;BME280;8009;50.070;8.232;2022-11-25T05:49:59;99860.78;;;7.88;76.09
15817;BME280;8009;50.070;8.232;2022-11-25T05:52:27;99854.78;;;7.97;75.78
15817;BME280;8009;50.070;8.232;2022-11-25T05:54:56;99858.91;;;7.76;76.38
15817;BME280;8009;50.070;8.232;2022-11-25T05:57:24;99866.72;;;7.93;75.46
15817;BME280;8009;50.070;8.232;2022-11-25T05:59:53;99870.06;;;7.97;75.26
15817;BME280;8009;50.070;8.232;2022-11-25T06:02:21;99871.75;;;7.85;75.57
15817;BME280;8009;50.070;8.232;2022-11-25T06:04:53;99880.78;;;7.84;75.48
15817;BME280;8009;50.070;8.232;2022-11-25T06:07:21;99864.00;;;7.80;75.65
15817;BME280;8009;50.070;8.232;2022-11-25T06:09:50;99863.16;;;7.93;75.75
15817;BME280;8009;50.070;8.232;2022-11-25T06:12:19;99863.06;;;7.94;75.63
15817;BME280;8009;50.070;8.232;2022-11-25T06:17:39;99884.09;;;7.75;77.22
15817;BME280;8009;50.070;8.232;2022-11-25T06:20:18;99877.06;;;7.72;76.86
15817;BME280;8009;50.070;8.232;2022-11-25T06:22:56;99891.03;;;7.92;76.53
15817;BME280;8009;50.070;8.232;2022-11-25T06:25:35;99900.22;;;7.75;77.20
15817;BME280;8009;50.070;8.232;2022-11-25T06:28:18;99908.28;;;7.75;77.98
15817;BME280;8009;50.070;8.232;2022-11-25T06:30:47;99896.75;;;7.73;77.50
15817;BME280;8009;50.070;8.232;2022-11-25T06:33:15;99894.38;;;7.68;78.08
15817;BME280;8009;50.070;8.232;2022-11-25T06:35:47;99897.97;;;7.81;77.17
15817;BME280;8009;50.070;8.232;2022-11-25T06:38:21;99900.38;;;7.86;77.40
15817;BME280;8009;50.070;8.232;2022-11-25T06:40:51;99906.47;;;7.61;78.29
15817;BME280;8009;50.070;8.232;2022-11-25T06:43:20;99909.13;;;7.75;78.01
15817;BME280;8009;50.070;8.232;2022-11-25T06:45:48;99910.28;;;7.30;80.08
15817;BME280;8009;50.070;8.232;2022-11-25T06:48:17;99919.50;;;7.26;79.79
15817;BME280;8009;50.070;8.232;2022-11-25T06:51:05;99911.06;;;7.59;79.48
15817;BME280;8009;50.070;8.232;2022-11-25T06:53:34;99913.47;;;7.64;79.27
15817;BME280;8009;50.070;8.232;2022-11-25T06:56:05;99912.50;;;7.65;77.99
15817;BME280;8009;50.070;8.232;2022-11-25T06:58:56;99918.84;;;7.64;78.95
15817;BME280;8009;50.070;8.232;2022-11-25T07:01:26;99919.41;;;7.69;79.24
15817;BME280;8009;50.070;8.232;2022-11-25T07:04:00;99914.88;;;7.84;78.18
15817;BME280;8009;50.070;8.232;2022-11-25T07:06:31;99925.69;;;7.82;77.36
15817;BME280;8009;50.070;8.232;2022-11-25T07:09:00;99923.50;;;7.74;78.17
15817;BME280;8009;50.070;8.232;2022-11-25T07:11:30;99923.59;;;7.87;77.47
15817;BME280;8009;50.070;8.232;2022-11-25T07:14:01;99927.63;;;7.80;77.07
15817;BME280;8009;50.070;8.232;2022-11-25T07:16:31;99928.38;;;7.82;77.34
15817;BME280;8009;50.070;8.232;2022-11-25T07:19:00;99940.19;;;7.94;77.04
15817;BME280;8009;50.070;8.232;2022-11-25T07:21:32;99942.44;;;8.00;76.49
15817;BME280;8009;50.070;8.232;2022-11-25T07:24:02;99943.47;;;7.85;76.40
15817;BME280;8009;50.070;8.232;2022-11-25T07:26:33;99949.81;;;7.84;77.13
15817;BME280;8009;50.070;8.232;2022-11-25T07:29:04;99950.66;;;7.84;77.02
15817;BME280;8009;50.070;8.232;2022-11-25T07:31:35;99944.50;;;7.82;77.08
15817;BME280;8009;50.070;8.232;2022-11-25T07:34:08;99930.78;;;7.87;77.27
15817;BME280;8009;50.070;8.232;2022-11-25T07:36:45;99946.19;;;7.70;77.80
15817;BME280;8009;50.070;8.232;2022-11-25T07:45:43;99944.81;;;7.77;77.76
15817;BME280;8009;50.070;8.232;2022-11-25T07:51:28;99962.88;;;7.75;78.12
15817;BME280;8009;50.070;8.232;2022-11-25T07:54:04;99949.63;;;7.87;77.54
15817;BME280;8009;50.070;8.232;2022-11-25T07:56:34;99954.69;;;7.91;77.87
15817;BME280;8009;50.070;8.232;2022-11-25T07:59:04;99957.72;;;7.99;77.90
15817;BME280;8009;50.070;8.232;2022-11-25T08:14:09;99958.81;;;7.55;79.38
15817;BME280;8009;50.070;8.232;2022-11-25T08:16:39;99963.22;;;7.98;77.82
15817;BME280;8009;50.070;8.232;2022-11-25T08:19:11;99961.03;;;7.90;78.12
15817;BME280;8009;50.070;8.232;2022-11-25T08:21:41;99959.06;;;7.65;78.39
15817;BME280;8009;50.070;8.232;2022-11-25T08:24:12;99964.31;;;7.81;78.43
15817;BME280;8009;50.070;8.232;2022-11-25T08:26:42;99972.78;;;7.75;78.70
15817;BME280;8009;50.070;8.232;2022-11-25T08:29:15;99968.59;;;7.98;78.41
15817;BME280;8009;50.070;8.232;2022-11-25T08:31:44;99978.91;;;7.77;78.49
15817;BME280;8009;50.070;8.232;2022-11-25T08:34:16;99979.34;;;7.98;78.56
15817;BME280;8009;50.070;8.232;2022-11-25T08:36:46;99980.38;;;8.10;78.07
15817;BME280;8009;50.070;8.232;2022-11-25T08:39:14;99985.63;;;8.11;77.98
15817;BME280;8009;50.070;8.232;2022-11-25T08:41:44;99988.53;;;8.08;77.91
15817;BME280;8009;50.070;8.232;2022-11-25T08:44:15;99993.72;;;8.11;78.16
15817;BME280;8009;50.070;8.232;2022-11-25T08:46:44;99992.06;;;8.09;78.97
15817;BME280;8009;50.070;8.232;2022-11-25T08:49:14;99994.19;;;8.18;78.15
15817;BME280;8009;50.070;8.232;2022-11-25T08:51:44;99996.66;;;7.94;78.86
15817;BME280;8009;50.070;8.232;2022-11-25T08:54:12;100004.53;;;7.82;78.59
15817;BME280;8009;50.070;8.232;2022-11-25T08:56:42;99999.97;;;7.97;78.12
15817;BME280;8009;50.070;8.232;2022-11-25T08:59:10;99999.03;;;7.98;78.30
15817;BME280;8009;50.070;8.232;2022-11-25T09:01:41;99997.69;;;8.05;78.02
15817;BME280;8009;50.070;8.232;2022-11-25T09:04:11;100007.00;;;8.27;77.70
15817;BME280;8009;50.070;8.232;2022-11-25T09:06:39;100012.19;;;8.44;77.52
15817;BME280;8009;50.070;8.232;2022-11-25T09:09:07;100017.88;;;8.40;77.47
15817;BME280;8009;50.070;8.232;2022-11-25T09:11:36;100008.31;;;8.34;77.18
15817;BME280;8009;50.070;8.232;2022-11-25T09:14:04;100016.41;;;8.34;77.40
15817;BME280;8009;50.070;8.232;2022-11-25T09:16:32;100015.84;;;8.29;77.44
15817;BME280;8009;50.070;8.232;2022-11-25T09:19:07;100015.03;;;8.14;78.40
15817;BME280;8009;50.070;8.232;2022-11-25T09:21:39;100020.28;;;8.16;78.37
15817;BME280;8009;50.070;8.232;2022-11-25T09:24:07;100020.28;;;8.16;78.52
15817;BME280;8009;50.070;8.232;2022-11-25T09:26:37;100029.69;;;8.23;77.91
15817;BME280;8009;50.070;8.232;2022-11-25T09:29:07;100029.88;;;8.20;78.58
15817;BME280;8009;50.070;8.232;2022-11-25T09:31:36;100021.38;;;8.13;78.40
15817;BME280;8009;50.070;8.232;2022-11-25T09:34:09;100022.94;;;8.44;77.81
15817;BME280;8009;50.070;8.232;2022-11-25T09:36:38;100029.41;;;8.54;77.21
15817;BME280;8009;50.070;8.232;2022-11-25T09:39:06;100032.34;;;8.51;76.63
15817;BME280;8009;50.070;8.232;2022-11-25T09:41:49;100038.03;;;8.33;77.54
15817;BME280;8009;50.070;8.232;2022-11-25T09:44:41;100048.47;;;8.51;76.92
15817;BME280;8009;50.070;8.232;2022-11-25T09:47:34;100047.19;;;8.57;77.07
15817;BME280;8009;50.070;8.232;2022-11-25T09:50:15;100050.03;;;8.68;76.38
15817;BME280;8009;50.070;8.232;2022-11-25T09:52:51;100045.09;;;8.75;76.09
15817;BME280;8009;50.070;8.232;2022-11-25T09:55:24;100047.16;;;8.71;77.06
15817;BME280;8009;50.070;8.232;2022-11-25T09:58:02;100053.34;;;8.59;76.91
15817;BME280;8009;50.070;8.232;2022-11-25T10:00:37;100054.34;;;8.71;76.40
15817;BME280;8009;50.070;8.232;2022-11-25T10:03:14;100057.91;;;8.71;77.25
15817;BME280;8009;50.070;8.232;2022-11-25T10:05:56;100058.84;;;8.97;76.34
15817;BME280;8009;50.070;8.232;2022-11-25T10:08:29;100070.41;;;8.85;76.03
15817;BME280;8009;50.070;8.232;2022-11-25T10:11:02;100067.16;;;8.26;78.64
15817;BME280;8009;50.070;8.232;2022-11-25T10:13:40;100069.59;;;8.58;77.65
15817;BME280;8009;50.070;8.232;2022-11-25T10:16:22;100068.25;;;8.77;77.67
15817;BME280;8009;50.070;8.232;2022-11-25T10:18:58;100061.19;;;8.89;77.21
15817;BME280;8009;50.070;8.232;2022-11-25T10:21:30;100067.34;;;8.64;78.31
15817;BME280;8009;50.070;8.232;2022-11-25T10:23:58;100073.22;;;8.44;78.35
15817;BME280;8009;50.070;8.232;2022-11-25T10:26:33;100074.97;;;8.58;78.06
15817;BME280;8009;50.070;8.232;2022-11-25T10:29:21;100078.16;;;8.50;77.75
15817;BME280;8009;50.070;8.232;2022-11-25T10:31:55;100078.97;;;8.65;77.50
15817;BME280;8009;50.070;8.232;2022-11-25T10:34:30;100073.44;;;8.53;76.52
15817;BME280;8009;50.070;8.232;2022-11-25T10:37:06;100077.81;;;8.42;77.74
15817;BME280;8009;50.070;8.232;2022-11-25T10:39:40;100076.09;;;8.68;76.49
15817;BME280;8009;50.070;8.232;2022-11-25T10:42:14;100073.91;;;8.04;79.17
15817;BME280;8009;50.070;8.232;2022-11-25T10:44:42;100073.16;;;7.88;80.77
15817;BME280;8009;50.070;8.232;2022-11-25T10:47:31;100061.63;;;8.96;78.00
15817;BME280;8009;50.070;8.232;2022-11-25T10:50:12;100073.03;;;9.39;75.48
15817;BME280;8009;50.070;8.232;2022-11-25T10:52:49;100073.19;;;9.11;75.46
15817;BME280;8009;50.070;8.232;2022-11-25T10:55:24;100072.38;;;9.48;74.09
15817;BME280;8009;50.070;8.232;2022-11-25T10:57:53;100081.97;;;9.52;74.55
15817;BME280;8009;50.070;8.232;2022-11-25T11:00:29;100086.72;;;9.74;74.28
15817;BME280;8009;50.070;8.232;2022-11-25T11:03:00;100090.59;;;9.32;75.06
15817;BME280;8009;50.070;8.232;2022-11-25T11:05:44;100095.41;;;9.27;75.80
15817;BME280;8009;50.070;8.232;2022-11-25T11:08:20;100089.81;;;9.17;76.25
15817;BME280;8009;50.070;8.232;2022-11-25T11:11:08;100091.44;;;9.33;76.43
15817;BME280;8009;50.070;8.232;2022-11-25T11:13:36;100095.53;;;9.38;75.33
15817;BME280;8009;50.070;8.232;2022-11-25T11:16:20;100090.00;;;9.27;76.00
15817;BME280;8009;50.070;8.232;2022-11-25T11:18:50;100085.19;;;9.58;75.28
15817;BME280;8009;50.070;8.232;2022-11-25T11:21:23;100075.81;;;9.76;74.68
15817;BME280;8009;50.070;8.232;2022-11-25T11:23:55;100094.91;;;9.86;74.35
15817;BME280;8009;50.070;8.232;2022-11-25T11:26:25;100088.34;;;9.77;73.33
15817;BME280;8009;50.070;8.232;2022-11-25T11:28:59;100091.25;;;9.36;74.19
15817;BME280;8009;50.070;8.232;2022-11-25T11:31:33;100094.25;;;9.57;74.17
15817;BME280;8009;50.070;8.232;2022-11-25T11:34:17;100095.13;;;9.57;73.35
15817;BME280;8009;50.070;8.232;2022-11-25T11:37:02;100098.13;;;9.65;73.71
15817;BME280;8009;50.070;8.232;2022-11-25T11:39:51;100110.59;;;9.15;75.66
15817;BME280;8009;50.070;8.232;2022-11-25T11:42:31;100106.41;;;9.24;76.34
15817;BME280;8009;50.070;8.232;2022-11-25T11:45:16;100106.56;;;9.48;74.32
15817;BME280;8009;50.070;8.232;2022-11-25T11:48:06;100110.53;;;9.55;74.25
15817;BME280;8009;50.070;8.232;2022-11-25T11:50:40;100123.97;;;9.17;75.53
15817;BME280;8009;50.070;8.232;2022-11-25T11:53:20;100121.84;;;9.47;73.75
15817;BME280;8009;50.070;8.232;2022-11-25T11:55:58;100130.31;;;9.16;75.44
15817;BME280;8009;50.070;8.232;2022-11-25T11:58:41;100133.59;;;8.94;75.65
15817;BME280;8009;50.070;8.232;2022-11-25T12:01:22;100133.91;;;9.29;75.49
15817;BME280;8009;50.070;8.232;2022-11-25T12:03:56;100133.41;;;9.62;73.58
15817;BME280;8009;50.070;8.232;2022-11-25T12:06:30;100134.56;;;9.33;76.01
15817;BME280;8009;50.070;8.232;2022-11-25T12:09:03;100137.03;;;9.36;74.63
15817;BME280;8009;50.070;8.232;2022-11-25T12:11:41;100135.78;;;9.54;75.02
15817;BME280;8009;50.070;8.232;2022-11-25T12:14:15;100139.34;;;9.55;75.19
15817;BME280;8009;50.070;8.232;2022-11-25T12:16:53;100142.00;;;9.42;75.43
15817;BME280;8009;50.070;8.232;2022-11-25T12:19:28;100137.25;;;9.45;75.11
15817;BME280;8009;50.070;8.232;2022-11-25T12:22:02;100148.22;;;9.30;75.93
15817;BME280;8009;50.070;8.232;2022-11-25T12:24:38;100144.09;;;9.64;74.50
15817;BME280;8009;50.070;8.232;2022-11-25T12:27:16;100142.56;;;9.60;74.47
15817;BME280;8009;50.070;8.232;2022-11-25T12:29:49;100143.63;;;9.57;74.74
15817;BME280;8009;50.070;8.232;2022-11-25T12:35:21;100147.50;;;9.40;75.23
15817;BME280;8009;50.070;8.232;2022-11-25T12:37:57;100143.47;;;9.73;74.78
15817;BME280;8009;50.070;8.232;2022-11-25T12:40:32;100145.94;;;9.89;73.62
15817;BME280;8009;50.070;8.232;2022-11-25T12:43:16;100160.50;;;9.86;74.97
15817;BME280;8009;50.070;8.232;2022-11-25T12:45:50;100158.13;;;9.94;73.24
15817;BME280;8009;50.070;8.232;2022-11-25T12:48:23;100165.88;;;9.86;72.68
15817;BME280;8009;50.070;8.232;2022-11-25T12:50:58;100162.53;;;9.95;73.19
15817;BME280;8009;50.070;8.232;2022-11-25T12:53:35;100157.53;;;10.15;73.01
15817;BME280;8009;50.070;8.232;2022-11-25T12:56:14;100157.69;;;10.26;72.74
15817;BME280;8009;50.070;8.232;2022-11-25T12:58:54;100155.75;;;10.15;72.58
15817;BME280;8009;50.070;8.232;2022-11-25T13:01:44;100160.59;;;10.23;72.53
15817;BME280;8009;50.070;8.232;2022-11-25T13:07:26;100163.50;;;10.07;73.63
15817;BME280;8009;50.070;8.232;2022-11-25T13:10:16;100176.09;;;9.68;75.32
15817;BME280;8009;50.070;8.232;2022-11-25T13:13:00;100185.41;;;10.02;73.87
15817;BME280;8009;50.070;8.232;2022-11-25T13:15:38;100181.31;;;9.97;74.10
15817;BME280;8009;50.070;8.232;2022-11-25T13:18:11;100183.16;;;10.09;73.97
15817;BME280;8009;50.070;8.232;2022-11-25T13:20:46;100186.81;;;10.21;73.75
15817;BME280;8009;50.070;8.232;2022-11-25T13:23:26;100184.22;;;10.07;74.10
15817;BME280;8009;50.070;8.232;2022-11-25T13:28:54;100188.66;;;10.08;74.23
15817;BME280;8009;50.070;8.232;2022-11-25T13:31:29;100197.50;;;10.10;74.33
15817;BME280;8009;50.070;8.232;2022-11-25T13:34:07;100202.00;;;10.22;73.72
15817;BME280;8009;50.070;8.232;2022-11-25T13:36:44;100207.63;;;10.06;75.67
15817;BME280;8009;50.070;8.232;2022-11-25T13:39:14;100211.94;;;10.21;74.60
15817;BME280;8009;50.070;8.232;2022-11-25T13:41:50;100215.00;;;10.30;74.07
15817;BME280;8009;50.070;8.232;2022-11-25T13:44:30;100220.28;;;10.44;73.39
15817;BME280;8009;50.070;8.232;2022-11-25T13:47:24;100227.31;;;10.46;73.47
15817;BME280;8009;50.070;8.232;2022-11-25T13:49:59;100225.03;;;10.53;73.29
15817;BME280;8009;50.070;8.232;2022-11-25T13:52:35;100225.34;;;10.48;73.08
15817;BME280;8009;50.070;8.232;2022-11-25T13:55:29;100227.72;;;10.40;73.31
15817;BME280;8009;50.070;8.232;2022-11-25T13:58:18;100227.19;;;10.48;73.29
15817;BME280;8009;50.070;8.232;2022-11-25T14:00:58;100226.63;;;10.56;73.04
15817;BME280;8009;50.070;8.232;2022-11-25T14:03:46;100231.47;;;10.63;72.80
15817;BME280;8009;50.070;8.232;2022-11-25T14:06:38;100239.72;;;10.62;72.76
15817;BME280;8009;50.070;8.232;2022-11-25T14:09:21;100238.84;;;10.61;73.09
15817;BME280;8009;50.070;8.232;2022-11-25T14:15:02;100242.84;;;10.43;74.17
15817;BME280;8009;50.070;8.232;2022-11-25T14:20:44;100239.19;;;10.44;73.07
15817;BME280;8009;50.070;8.232;2022-11-25T14:23:32;100243.38;;;10.48;72.79
15817;BME280;8009;50.070;8.232;2022-11-25T14:26:11;100247.94;;;10.35;73.53
15817;BME280;8009;50.070;8.232;2022-11-25T14:28:43;100249.25;;;10.42;73.73